Time;durP1;ratioP1;P1;durP2;ratioP2;P2;SDS_P1;SDS_P2;PMS_P1;PMS_P2;Temp;Humidity;BMP_temperature;BMP_pressure;BME280_temperature;BME280_humidity;BME280_pressure;Samples;Min_cycle;Max_cycle;Signal;HPM_P1;HPM_P2
2022/05/12 00:01:58;;;;;;;8.32;1.80;;;;;;;;;;4955643;29;20027;-78
2022/05/12 00:04:25;;;;;;;10.70;2.10;;;;;;;;;;4955613;29;20024;-78
2022/05/12 00:06:51;;;;;;;13.70;1.90;;;;;;;;;;4955490;29;20042;-78
2022/05/12 00:09:17;;;;;;;14.98;1.60;;;;;;;;;;4938393;29;20027;-78
2022/05/12 00:11:43;;;;;;;11.48;1.92;;;;;;;;;;4955731;29;20039;-78
2022/05/12 00:14:09;;;;;;;10.20;1.98;;;;;;;;;;4956074;29;20026;-78
2022/05/12 00:16:35;;;;;;;16.30;2.03;;;;;;;;;;4955685;29;20576;-77
2022/05/12 00:19:01;;;;;;;10.50;1.67;;;;;;;;;;4956016;29;20422;-77
2022/05/12 00:21:27;;;;;;;10.85;1.63;;;;;;;;;;4955752;29;20031;-78
2022/05/12 00:23:56;;;;;;;17.13;2.20;;;;;;;;;;4956188;28;20114;-78
2022/05/12 00:26:30;;;;;;;16.80;2.17;;;;;;;;;;4974680;28;20031;-77
2022/05/12 00:29:00;;;;;;;11.30;1.88;;;;;;;;;;4974671;28;20035;-77
2022/05/12 00:31:27;;;;;;;12.73;2.60;;;;;;;;;;4974653;28;20481;-77
2022/05/12 00:33:53;;;;;;;9.70;2.35;;;;;;;;;;4974891;28;20053;-78
2022/05/12 00:36:19;;;;;;;8.77;1.58;;;;;;;;;;4974575;28;20055;-77
2022/05/12 00:38:45;;;;;;;13.52;1.88;;;;;;;;;;4974700;28;20033;-77
2022/05/12 00:41:12;;;;;;;12.88;1.70;;;;;;;;;;4957460;28;20030;-78
2022/05/12 00:43:43;;;;;;;13.45;2.08;;;;;;;;;;4957143;28;20458;-78
2022/05/12 00:46:11;;;;;;;11.02;1.88;;;;;;;;;;4957217;28;20039;-78
2022/05/12 00:48:37;;;;;;;11.90;1.88;;;;;;;;;;4957020;28;20053;-77
2022/05/12 00:51:04;;;;;;;10.45;1.80;;;;;;;;;;4956971;28;20493;-77
2022/05/12 00:53:31;;;;;;;9.25;1.70;;;;;;;;;;4974566;28;20477;-77
2022/05/12 00:55:58;;;;;;;16.85;2.30;;;;;;;;;;4973985;28;20022;-78
2022/05/12 00:58:24;;;;;;;10.88;1.80;;;;;;;;;;4974744;28;20027;-78
2022/05/12 01:00:50;;;;;;;19.48;3.95;;;;;;;;;;4974568;28;20105;-78
2022/05/12 01:03:18;;;;;;;11.82;2.40;;;;;;;;;;4974599;28;20019;-78
2022/05/12 01:05:45;;;;;;;14.30;2.50;;;;;;;;;;4952149;29;20086;-78
2022/05/12 01:08:12;;;;;;;9.25;1.77;;;;;;;;;;4955083;29;20094;-78
2022/05/12 01:10:39;;;;;;;13.13;2.00;;;;;;;;;;4954948;29;20031;-78
2022/05/12 01:13:05;;;;;;;11.70;2.47;;;;;;;;;;4954788;29;20432;-77
2022/05/12 01:15:31;;;;;;;10.35;1.77;;;;;;;;;;4937349;29;20031;-78
2022/05/12 01:18:03;;;;;;;14.70;2.20;;;;;;;;;;4968427;28;20015;-78
2022/05/12 01:20:29;;;;;;;11.93;1.90;;;;;;;;;;4973617;28;20046;-78
2022/05/12 01:22:59;;;;;;;11.02;1.90;;;;;;;;;;4973768;28;20105;-77
2022/05/12 01:25:27;;;;;;;17.38;2.85;;;;;;;;;;4973931;28;20043;-78
2022/05/12 01:27:53;;;;;;;10.60;2.40;;;;;;;;;;4973916;28;20031;-78
2022/05/12 01:30:20;;;;;;;11.63;2.13;;;;;;;;;;4956449;28;20091;-78
2022/05/12 01:32:47;;;;;;;11.90;2.35;;;;;;;;;;4956363;28;20034;-78
2022/05/12 01:35:13;;;;;;;11.48;2.22;;;;;;;;;;4973840;28;20073;-78
2022/05/12 01:37:41;;;;;;;12.13;2.30;;;;;;;;;;4972472;28;20028;-78
2022/05/12 01:40:07;;;;;;;16.98;2.65;;;;;;;;;;4954249;29;20052;-78
2022/05/12 01:42:33;;;;;;;14.02;2.40;;;;;;;;;;4954373;29;20035;-78
2022/05/12 01:44:59;;;;;;;10.82;2.58;;;;;;;;;;4952931;29;20034;-77
2022/05/12 01:47:25;;;;;;;11.90;2.33;;;;;;;;;;4954136;29;20091;-77
2022/05/12 01:49:51;;;;;;;12.15;2.70;;;;;;;;;;4954170;29;20038;-77
2022/05/12 01:52:17;;;;;;;12.57;2.70;;;;;;;;;;4954250;29;20055;-78
2022/05/12 01:54:43;;;;;;;8.25;2.35;;;;;;;;;;4954705;29;20027;-78
2022/05/12 01:57:09;;;;;;;11.68;2.10;;;;;;;;;;4954575;29;20027;-78
2022/05/12 01:59:35;;;;;;;15.52;2.60;;;;;;;;;;4954676;29;20035;-78
2022/05/12 02:02:03;;;;;;;13.90;2.80;;;;;;;;;;4954448;29;20031;-78
2022/05/12 02:04:29;;;;;;;10.55;2.33;;;;;;;;;;4953233;29;20508;-78
2022/05/12 02:06:55;;;;;;;7.47;2.28;;;;;;;;;;4955837;28;20054;-78
2022/05/12 02:09:21;;;;;;;21.23;2.92;;;;;;;;;;4958623;29;20045;-78
2022/05/12 02:11:47;;;;;;;10.52;2.50;;;;;;;;;;4956981;29;20480;-78
2022/05/12 02:14:14;;;;;;;10.20;3.28;;;;;;;;;;4958539;29;20765;-78
2022/05/12 02:16:40;;;;;;;17.15;2.88;;;;;;;;;;4959986;28;20031;-78
2022/05/12 02:19:08;;;;;;;15.27;3.25;;;;;;;;;;4977441;28;20018;-78
2022/05/12 02:21:34;;;;;;;13.75;3.90;;;;;;;;;;4976571;28;20019;-78
2022/05/12 02:24:01;;;;;;;14.52;2.63;;;;;;;;;;4977016;28;20440;-78
2022/05/12 02:26:27;;;;;;;12.52;3.10;;;;;;;;;;4977063;28;20094;-78
2022/05/12 02:28:53;;;;;;;11.43;2.60;;;;;;;;;;4977344;28;20118;-78
2022/05/12 02:31:22;;;;;;;14.20;2.75;;;;;;;;;;4959843;28;20134;-78
2022/05/12 02:33:48;;;;;;;12.20;2.38;;;;;;;;;;4977492;28;20031;-78
2022/05/12 02:36:14;;;;;;;13.63;2.85;;;;;;;;;;4977151;28;20504;-78
2022/05/12 02:38:41;;;;;;;12.00;3.50;;;;;;;;;;4976912;28;20023;-78
2022/05/12 02:41:07;;;;;;;10.75;2.70;;;;;;;;;;4977252;28;20031;-78
2022/05/12 02:43:33;;;;;;;9.02;2.80;;;;;;;;;;4959613;28;20027;-78
2022/05/12 02:46:01;;;;;;;7.72;3.20;;;;;;;;;;4976687;28;20034;-78
2022/05/12 02:48:29;;;;;;;19.42;4.20;;;;;;;;;;4977188;28;20030;-78
2022/05/12 02:50:55;;;;;;;15.95;4.20;;;;;;;;;;4976851;28;20035;-78
2022/05/12 02:53:21;;;;;;;11.55;3.63;;;;;;;;;;4977115;28;20038;-78
2022/05/12 02:55:47;;;;;;;16.27;4.00;;;;;;;;;;4976760;28;20026;-78
2022/05/12 02:58:14;;;;;;;11.45;4.35;;;;;;;;;;4976829;28;20042;-78
2022/05/12 03:00:40;;;;;;;16.80;4.20;;;;;;;;;;4976855;28;20355;-78
2022/05/12 03:03:07;;;;;;;14.18;4.45;;;;;;;;;;4976953;28;20143;-78
2022/05/12 03:05:33;;;;;;;15.73;4.65;;;;;;;;;;4973998;28;20031;-79
2022/05/12 03:07:59;;;;;;;12.50;4.50;;;;;;;;;;4957894;29;20043;-78
2022/05/12 03:10:26;;;;;;;10.38;4.38;;;;;;;;;;4957368;29;20471;-78
2022/05/12 03:12:52;;;;;;;22.08;6.72;;;;;;;;;;4957531;29;20106;-78
2022/05/12 03:15:19;;;;;;;16.90;4.75;;;;;;;;;;4957430;29;20028;-78
2022/05/12 03:17:45;;;;;;;12.68;4.97;;;;;;;;;;4956941;28;20015;-79
2022/05/12 03:20:13;;;;;;;16.67;5.43;;;;;;;;;;4956923;29;20039;-79
2022/05/12 03:22:39;;;;;;;17.63;6.22;;;;;;;;;;4956847;29;20023;-78
2022/05/12 03:25:08;;;;;;;21.77;6.72;;;;;;;;;;4955502;29;20034;-78
2022/05/12 03:27:34;;;;;;;13.95;5.50;;;;;;;;;;4956961;29;20023;-79
2022/05/12 03:30:01;;;;;;;15.85;5.88;;;;;;;;;;4956855;29;20019;-78
2022/05/12 03:32:27;;;;;;;16.33;5.78;;;;;;;;;;4956873;29;20098;-78
2022/05/12 03:34:53;;;;;;;15.30;6.18;;;;;;;;;;4956045;29;20505;-78
2022/05/12 03:37:19;;;;;;;13.80;6.70;;;;;;;;;;4956284;29;20066;-79
2022/05/12 03:39:45;;;;;;;16.55;6.57;;;;;;;;;;4956318;28;20418;-78
2022/05/12 03:42:12;;;;;;;20.42;6.22;;;;;;;;;;4956836;29;20043;-78
2022/05/12 03:44:49;;;;;;;14.63;6.70;;;;;;;;;;4956973;29;20045;-78
2022/05/12 03:47:16;;;;;;;13.70;6.40;;;;;;;;;;4956724;29;20027;-78
2022/05/12 03:49:42;;;;;;;14.88;6.95;;;;;;;;;;4956439;29;20031;-78
2022/05/12 03:52:08;;;;;;;21.50;7.38;;;;;;;;;;4938936;29;20027;-79
2022/05/12 03:54:34;;;;;;;16.85;7.63;;;;;;;;;;4938950;29;20410;-79
2022/05/12 03:57:01;;;;;;;13.25;6.93;;;;;;;;;;4956413;29;20042;-79
2022/05/12 03:59:28;;;;;;;15.85;7.13;;;;;;;;;;4939130;29;20806;-79
2022/05/12 04:01:54;;;;;;;15.30;6.97;;;;;;;;;;4956639;29;20023;-79
2022/05/12 04:04:20;;;;;;;16.77;7.60;;;;;;;;;;4939051;29;20120;-79
2022/05/12 04:06:46;;;;;;;19.00;9.20;;;;;;;;;;4956225;29;20027;-79
2022/05/12 04:09:12;;;;;;;21.50;8.43;;;;;;;;;;4956246;29;20062;-79
2022/05/12 04:11:38;;;;;;;17.67;7.80;;;;;;;;;;4956310;29;20027;-79
2022/05/12 04:14:04;;;;;;;15.43;6.80;;;;;;;;;;4956215;29;20540;-78
2022/05/12 04:16:32;;;;;;;17.02;8.27;;;;;;;;;;4955925;28;20533;-78
2022/05/12 04:18:58;;;;;;;15.43;7.93;;;;;;;;;;4954813;29;20023;-79
2022/05/12 04:21:24;;;;;;;18.00;7.15;;;;;;;;;;4955887;29;20078;-79
2022/05/12 04:23:51;;;;;;;16.73;8.68;;;;;;;;;;4955987;29;20019;-79
2022/05/12 04:26:17;;;;;;;19.40;8.60;;;;;;;;;;4968695;28;20034;-79
2022/05/12 04:28:45;;;;;;;19.30;7.97;;;;;;;;;;4974661;28;20031;-79
2022/05/12 04:31:11;;;;;;;14.40;7.22;;;;;;;;;;4974436;28;20413;-79
2022/05/12 04:36:22;;;;;;;16.30;7.72;;;;;;;;;;4974659;28;20097;-79
2022/05/12 04:38:48;;;;;;;20.33;7.35;;;;;;;;;;4974526;28;20023;-79
2022/05/12 04:41:15;;;;;;;13.15;7.15;;;;;;;;;;4974410;28;20030;-79
2022/05/12 04:43:41;;;;;;;16.02;7.47;;;;;;;;;;4974566;28;20094;-79
2022/05/12 04:46:07;;;;;;;18.85;7.70;;;;;;;;;;4956917;28;20023;-78
2022/05/12 04:48:34;;;;;;;16.52;8.23;;;;;;;;;;4974963;28;20047;-78
2022/05/12 04:51:00;;;;;;;19.15;8.05;;;;;;;;;;4974047;28;20042;-78
2022/05/12 04:53:27;;;;;;;18.83;8.00;;;;;;;;;;4974066;28;20437;-79
2022/05/12 04:55:53;;;;;;;14.20;7.47;;;;;;;;;;4973867;28;20113;-78
2022/05/12 04:58:19;;;;;;;10.15;6.30;;;;;;;;;;4973533;28;20098;-78
2022/05/12 05:00:45;;;;;;;12.70;6.22;;;;;;;;;;4973838;28;20026;-79
2022/05/12 05:03:12;;;;;;;12.95;6.20;;;;;;;;;;4973925;28;20019;-78
2022/05/12 05:05:38;;;;;;;10.98;6.35;;;;;;;;;;4974990;28;20048;-79
2022/05/12 05:08:05;;;;;;;18.52;6.28;;;;;;;;;;4974686;28;20122;-78
2022/05/12 05:10:32;;;;;;;16.13;7.03;;;;;;;;;;4957217;28;20413;-79
2022/05/12 05:12:58;;;;;;;14.23;6.50;;;;;;;;;;4974475;28;20019;-79
2022/05/12 05:15:25;;;;;;;11.10;6.65;;;;;;;;;;4974778;28;20051;-79
2022/05/12 05:17:51;;;;;;;12.63;6.80;;;;;;;;;;4974760;28;20018;-78
2022/05/12 05:20:20;;;;;;;13.32;6.57;;;;;;;;;;4974206;28;20035;-78
2022/05/12 05:22:46;;;;;;;12.15;6.40;;;;;;;;;;4956990;28;20390;-78
2022/05/12 05:25:12;;;;;;;16.63;5.78;;;;;;;;;;4974251;28;20411;-78
2022/05/12 05:27:38;;;;;;;14.18;5.65;;;;;;;;;;4974408;28;20023;-78
2022/05/12 05:30:06;;;;;;;14.40;5.78;;;;;;;;;;4957277;28;20023;-78
2022/05/12 05:32:33;;;;;;;12.68;6.00;;;;;;;;;;4974301;28;20026;-78
2022/05/12 05:34:59;;;;;;;12.10;6.28;;;;;;;;;;4974546;28;20027;-79
2022/05/12 05:37:25;;;;;;;17.23;6.10;;;;;;;;;;4974196;28;20090;-78
2022/05/12 05:39:51;;;;;;;15.32;5.68;;;;;;;;;;4974327;28;20094;-79
2022/05/12 05:42:19;;;;;;;11.00;5.15;;;;;;;;;;4973973;28;20030;-78
2022/05/12 05:44:45;;;;;;;17.45;5.85;;;;;;;;;;4974471;28;20018;-79
2022/05/12 05:47:11;;;;;;;13.05;5.32;;;;;;;;;;4974079;28;20066;-79
2022/05/12 05:49:37;;;;;;;12.77;5.95;;;;;;;;;;4974233;28;20389;-79
2022/05/12 05:54:49;;;;;;;17.77;5.32;;;;;;;;;;4973398;28;20113;-79
2022/05/12 05:57:20;;;;;;;18.45;5.18;;;;;;;;;;4973361;28;20031;-78
2022/05/12 05:59:48;;;;;;;13.07;5.68;;;;;;;;;;4973431;28;20027;-79
2022/05/12 06:02:14;;;;;;;11.25;4.90;;;;;;;;;;4956577;28;20473;-79
2022/05/12 06:04:40;;;;;;;10.85;4.90;;;;;;;;;;4973668;28;20118;-79
2022/05/12 06:07:06;;;;;;;10.15;5.63;;;;;;;;;;4973806;28;20058;-79
2022/05/12 06:09:32;;;;;;;14.48;5.22;;;;;;;;;;4973930;28;20369;-78
2022/05/12 06:11:58;;;;;;;10.02;4.50;;;;;;;;;;4973913;28;20042;-78
2022/05/12 06:14:24;;;;;;;10.88;4.53;;;;;;;;;;4973876;28;20035;-78
2022/05/12 06:16:51;;;;;;;13.40;4.28;;;;;;;;;;4953347;29;20027;-79
2022/05/12 06:19:17;;;;;;;9.43;4.05;;;;;;;;;;4954280;29;20174;-79
2022/05/12 06:21:43;;;;;;;10.32;4.25;;;;;;;;;;4968859;28;20418;-79
2022/05/12 06:24:09;;;;;;;8.75;3.60;;;;;;;;;;4960139;28;20034;-79
2022/05/12 06:26:36;;;;;;;7.13;3.72;;;;;;;;;;4968172;28;20101;-79
2022/05/12 06:29:02;;;;;;;12.48;4.07;;;;;;;;;;4971995;28;20436;-78
2022/05/12 06:31:32;;;;;;;10.57;4.03;;;;;;;;;;4956807;28;20031;-79
2022/05/12 06:33:59;;;;;;;11.88;3.97;;;;;;;;;;4963041;28;20106;-79
2022/05/12 06:36:25;;;;;;;11.75;3.90;;;;;;;;;;4972430;28;20050;-77
2022/05/12 06:38:52;;;;;;;13.68;4.03;;;;;;;;;;4967950;28;20019;-77
2022/05/12 06:41:18;;;;;;;9.32;4.03;;;;;;;;;;4945368;28;20019;-77
2022/05/12 06:43:46;;;;;;;11.73;4.30;;;;;;;;;;4964586;28;20556;-77
2022/05/12 06:46:15;;;;;;;12.30;4.35;;;;;;;;;;4971755;28;20031;-77
2022/05/12 06:48:42;;;;;;;10.10;3.53;;;;;;;;;;4954553;28;20026;-77
2022/05/12 06:51:08;;;;;;;9.20;3.50;;;;;;;;;;4972165;28;20027;-77
2022/05/12 06:53:34;;;;;;;11.90;3.90;;;;;;;;;;4973811;28;20041;-76
2022/05/12 06:56:00;;;;;;;11.45;3.10;;;;;;;;;;4975580;28;20077;-77
2022/05/12 06:58:27;;;;;;;12.43;3.03;;;;;;;;;;4958384;28;20382;-77
2022/05/12 07:00:53;;;;;;;12.07;3.40;;;;;;;;;;4975497;28;20015;-77
2022/05/12 07:03:19;;;;;;;9.13;3.55;;;;;;;;;;4975753;28;20023;-77
2022/05/12 07:05:45;;;;;;;12.95;3.45;;;;;;;;;;4975171;28;20022;-78
2022/05/12 07:08:12;;;;;;;8.32;2.80;;;;;;;;;;4975423;28;20019;-77
2022/05/12 07:10:38;;;;;;;8.18;2.88;;;;;;;;;;4975529;28;20030;-77
2022/05/12 07:13:04;;;;;;;11.77;3.03;;;;;;;;;;4975239;28;20057;-78
2022/05/12 07:15:31;;;;;;;8.25;2.53;;;;;;;;;;4975076;28;20101;-77
2022/05/12 07:17:58;;;;;;;11.70;2.80;;;;;;;;;;4975188;28;20027;-78
2022/05/12 07:28:39;;;;;;;6.95;2.00;;;;;;;;;;4973096;28;20042;-78
2022/05/12 07:31:07;;;;;;;7.47;2.40;;;;;;;;;;4975263;28;20034;-78
2022/05/12 07:33:33;;;;;;;6.18;2.00;;;;;;;;;;4966013;28;20029;-78
2022/05/12 07:36:00;;;;;;;6.72;1.90;;;;;;;;;;4961871;28;20054;-78
2022/05/12 07:38:27;;;;;;;7.82;2.20;;;;;;;;;;4969308;28;20027;-77
2022/05/12 07:40:53;;;;;;;7.20;1.98;;;;;;;;;;4974673;28;20022;-78
2022/05/12 07:43:20;;;;;;;6.80;2.00;;;;;;;;;;4967368;28;20043;-79
2022/05/12 07:45:46;;;;;;;6.82;2.10;;;;;;;;;;4967610;28;20717;-77
2022/05/12 07:48:12;;;;;;;8.40;2.33;;;;;;;;;;4963991;28;20035;-80
2022/05/12 07:50:39;;;;;;;6.90;2.88;;;;;;;;;;4965934;28;20362;-77
2022/05/12 07:53:05;;;;;;;4.47;1.70;;;;;;;;;;4963612;28;20019;-77
2022/05/12 07:55:32;;;;;;;6.75;1.98;;;;;;;;;;4972699;28;20065;-79
2022/05/12 07:57:58;;;;;;;4.47;1.83;;;;;;;;;;4946902;28;20027;-77
2022/05/12 08:00:24;;;;;;;9.13;2.40;;;;;;;;;;4968360;28;20101;-73
2022/05/12 08:02:51;;;;;;;5.63;1.58;;;;;;;;;;4974301;28;20098;-75
2022/05/12 08:05:18;;;;;;;7.85;2.13;;;;;;;;;;4974723;28;20082;-77
2022/05/12 08:07:45;;;;;;;5.97;1.80;;;;;;;;;;4974661;28;20033;-76
2022/05/12 08:10:11;;;;;;;8.35;2.20;;;;;;;;;;4974743;28;20474;-76
2022/05/12 08:12:37;;;;;;;9.50;2.30;;;;;;;;;;4957041;28;20027;-76
2022/05/12 08:15:04;;;;;;;11.02;2.50;;;;;;;;;;4974269;28;20073;-79
2022/05/12 08:17:30;;;;;;;8.75;2.53;;;;;;;;;;4956370;28;20030;-79
2022/05/12 08:19:56;;;;;;;11.85;2.58;;;;;;;;;;4974170;28;20030;-79
2022/05/12 08:22:22;;;;;;;6.82;2.00;;;;;;;;;;4974129;28;20026;-77
2022/05/12 08:24:49;;;;;;;7.45;2.05;;;;;;;;;;4973965;28;20362;-77
2022/05/12 08:27:15;;;;;;;3.15;1.83;;;;;;;;;;4956460;28;20034;-77
2022/05/12 08:29:41;;;;;;;9.57;2.40;;;;;;;;;;4974079;28;20031;-78
2022/05/12 08:32:08;;;;;;;9.43;1.90;;;;;;;;;;4973914;28;20037;-78
2022/05/12 08:34:34;;;;;;;4.57;1.50;;;;;;;;;;4974455;28;20053;-78
2022/05/12 08:37:00;;;;;;;7.40;2.35;;;;;;;;;;4973695;28;20082;-77
2022/05/12 08:39:26;;;;;;;5.45;2.00;;;;;;;;;;4974091;28;20492;-77
2022/05/12 08:41:58;;;;;;;9.05;1.95;;;;;;;;;;4974070;28;20536;-77
2022/05/12 08:44:24;;;;;;;8.13;1.85;;;;;;;;;;4974559;28;20030;-77
2022/05/12 08:46:54;;;;;;;5.50;1.20;;;;;;;;;;4956703;28;20447;-77
2022/05/12 08:49:47;;;;;;;5.40;1.40;;;;;;;;;;4974190;28;20026;-78
2022/05/12 08:52:31;;;;;;;8.25;1.58;;;;;;;;;;4963423;28;20073;-77
2022/05/12 08:55:00;;;;;;;7.53;1.42;;;;;;;;;;4973803;28;20023;-77
2022/05/12 08:57:29;;;;;;;4.97;1.27;;;;;;;;;;4973895;28;20103;-78
2022/05/12 08:59:56;;;;;;;6.88;1.38;;;;;;;;;;4973894;28;20027;-75
2022/05/12 09:02:33;;;;;;;7.40;1.55;;;;;;;;;;4992581;28;20038;-78
2022/05/12 09:05:11;;;;;;;4.93;1.45;;;;;;;;;;4993293;28;20033;-77
2022/05/12 09:07:49;;;;;;;11.23;2.63;;;;;;;;;;4954381;29;20102;-80
2022/05/12 09:10:30;;;;;;;3.22;1.40;;;;;;;;;;4937622;29;20477;-80
2022/05/12 09:13:01;;;;;;;5.97;1.40;;;;;;;;;;4954659;29;20174;-79
2022/05/12 09:15:38;;;;;;;2.85;1.10;;;;;;;;;;4936563;29;20390;-80
2022/05/12 09:18:11;;;;;;;7.00;1.98;;;;;;;;;;4937208;29;20024;-80
2022/05/12 09:20:37;;;;;;;4.07;1.10;;;;;;;;;;4958233;28;20101;-78
2022/05/12 09:23:04;;;;;;;7.13;1.40;;;;;;;;;;4973561;28;20030;-77
2022/05/12 09:25:33;;;;;;;5.50;1.48;;;;;;;;;;4973712;28;20027;-77
2022/05/12 09:28:07;;;;;;;6.53;1.55;;;;;;;;;;4973790;28;20027;-76
2022/05/12 09:30:35;;;;;;;3.40;1.30;;;;;;;;;;4974234;28;20034;-79
2022/05/12 09:33:02;;;;;;;5.88;1.77;;;;;;;;;;4956460;28;20093;-77
2022/05/12 09:35:29;;;;;;;3.75;1.73;;;;;;;;;;4952619;28;20042;-77
2022/05/12 09:37:56;;;;;;;4.63;1.00;;;;;;;;;;4970643;28;20051;-78
2022/05/12 09:40:37;;;;;;;6.53;1.30;;;;;;;;;;4965681;28;20023;-78
2022/05/12 09:43:24;;;;;;;5.40;1.27;;;;;;;;;;4972138;28;20030;-77
2022/05/12 09:46:02;;;;;;;5.15;1.27;;;;;;;;;;4957000;28;20122;-77
2022/05/12 09:48:31;;;;;;;4.70;1.27;;;;;;;;;;4973280;28;20540;-77
2022/05/12 09:51:15;;;;;;;4.75;1.40;;;;;;;;;;4955665;28;20437;-77
2022/05/12 09:53:41;;;;;;;4.85;1.38;;;;;;;;;;4973594;28;20026;-76
2022/05/12 09:56:24;;;;;;;4.00;1.20;;;;;;;;;;4972347;28;20015;-76
2022/05/12 09:58:59;;;;;;;4.70;1.40;;;;;;;;;;4972445;28;20031;-77
2022/05/12 10:01:25;;;;;;;7.38;1.30;;;;;;;;;;4973112;28;20361;-78
2022/05/12 10:09:34;;;;;;;6.05;1.17;;;;;;;;;;4972964;28;20098;-77
2022/05/12 10:12:03;;;;;;;3.58;0.95;;;;;;;;;;4972811;28;20031;-77
2022/05/12 10:14:44;;;;;;;4.50;1.42;;;;;;;;;;4972776;28;20031;-78
2022/05/12 10:17:34;;;;;;;6.30;1.33;;;;;;;;;;4970677;28;20130;-77
2022/05/12 10:20:03;;;;;;;6.05;1.50;;;;;;;;;;4893823;29;20075;-79
2022/05/12 10:22:33;;;;;;;6.60;1.30;;;;;;;;;;4894237;29;20403;-79
2022/05/12 10:25:20;;;;;;;4.57;1.40;;;;;;;;;;4894112;29;20040;-77
2022/05/12 10:27:54;;;;;;;4.78;1.60;;;;;;;;;;4894638;29;20036;-76
2022/05/12 10:30:23;;;;;;;8.98;1.75;;;;;;;;;;4897690;29;20051;-79
2022/05/12 10:32:55;;;;;;;6.03;1.48;;;;;;;;;;4897875;29;20103;-78
2022/05/12 10:35:25;;;;;;;4.72;1.52;;;;;;;;;;4897515;29;20032;-79
2022/05/12 10:37:54;;;;;;;5.63;1.58;;;;;;;;;;4882093;29;20052;-78
2022/05/12 10:40:32;;;;;;;3.83;1.20;;;;;;;;;;4883693;29;20368;-78
2022/05/12 10:43:04;;;;;;;5.95;1.52;;;;;;;;;;4897320;29;20040;-79
2022/05/12 10:45:37;;;;;;;11.55;1.95;;;;;;;;;;4881643;29;20553;-77
2022/05/12 10:48:03;;;;;;;6.47;1.40;;;;;;;;;;4896832;29;20088;-76
2022/05/12 10:50:35;;;;;;;2.97;1.13;;;;;;;;;;4881076;29;20048;-74
2022/05/12 10:53:13;;;;;;;5.57;1.40;;;;;;;;;;4897055;29;20088;-77
2022/05/12 10:55:58;;;;;;;6.00;1.45;;;;;;;;;;4896634;29;20040;-76
2022/05/12 10:58:32;;;;;;;4.88;1.38;;;;;;;;;;4975613;28;20022;-79
2022/05/12 11:00:58;;;;;;;11.07;1.55;;;;;;;;;;4976608;28;20030;-80
2022/05/12 11:03:31;;;;;;;3.60;1.10;;;;;;;;;;4976900;28;20023;-81
2022/05/12 11:06:00;;;;;;;6.45;1.33;;;;;;;;;;4976108;28;20034;-80
2022/05/12 11:08:30;;;;;;;4.38;1.13;;;;;;;;;;4976779;28;20038;-81
2022/05/12 11:10:58;;;;;;;8.10;1.25;;;;;;;;;;4959140;28;20042;-80
2022/05/12 11:13:29;;;;;;;4.30;1.10;;;;;;;;;;4958908;28;20110;-80
2022/05/12 11:16:00;;;;;;;6.93;1.30;;;;;;;;;;4976352;28;20086;-80
2022/05/12 11:18:28;;;;;;;5.65;1.20;;;;;;;;;;4976472;28;20442;-80
2022/05/12 11:21:08;;;;;;;5.38;1.40;;;;;;;;;;4976503;28;20033;-80
2022/05/12 11:23:41;;;;;;;6.10;1.65;;;;;;;;;;4976274;28;20037;-80
2022/05/12 11:26:14;;;;;;;6.85;1.30;;;;;;;;;;4975903;28;20465;-79
2022/05/12 11:31:51;;;;;;;5.53;1.50;;;;;;;;;;4976152;28;20152;-79
2022/05/12 11:34:20;;;;;;;3.63;1.35;;;;;;;;;;4975958;28;20035;-79
2022/05/12 11:36:51;;;;;;;4.00;1.30;;;;;;;;;;4975630;28;20478;-79
2022/05/12 11:39:20;;;;;;;3.75;1.33;;;;;;;;;;4961105;28;20031;-79
2022/05/12 11:41:46;;;;;;;6.70;1.10;;;;;;;;;;4946999;28;20042;-79
2022/05/12 11:44:24;;;;;;;4.88;1.40;;;;;;;;;;4966434;28;20022;-79
2022/05/12 11:47:09;;;;;;;3.90;1.33;;;;;;;;;;4964280;28;20034;-79
2022/05/12 11:49:43;;;;;;;6.10;1.13;;;;;;;;;;4973256;28;20031;-79
2022/05/12 11:52:28;;;;;;;6.30;1.40;;;;;;;;;;4975328;28;20035;-76
2022/05/12 11:54:57;;;;;;;5.07;1.23;;;;;;;;;;4975449;28;20023;-80
2022/05/12 11:57:32;;;;;;;3.03;1.20;;;;;;;;;;4975032;28;20031;-77
2022/05/12 11:59:59;;;;;;;3.83;1.25;;;;;;;;;;4974803;28;20026;-77
2022/05/12 12:02:28;;;;;;;4.28;1.17;;;;;;;;;;4991649;28;20082;-78
2022/05/12 12:04:58;;;;;;;6.22;1.30;;;;;;;;;;4993568;28;20022;-77
2022/05/12 12:07:24;;;;;;;3.90;1.23;;;;;;;;;;4976429;28;20038;-76
2022/05/12 12:09:55;;;;;;;61.10;5.47;;;;;;;;;;4979532;28;20030;-77
2022/05/12 12:12:53;;;;;;;63.63;8.82;;;;;;;;;;4974510;28;20389;-76
2022/05/12 12:15:30;;;;;;;81.22;8.65;;;;;;;;;;4895174;29;20044;-79
2022/05/12 12:17:57;;;;;;;189.10;13.70;;;;;;;;;;4895691;29;20037;-78
2022/05/12 12:20:29;;;;;;;58.30;6.18;;;;;;;;;;4895743;29;20029;-78
2022/05/12 12:22:56;;;;;;;53.75;7.20;;;;;;;;;;4895724;29;20028;-76
2022/05/12 12:25:40;;;;;;;203.75;18.30;;;;;;;;;;4895769;29;20037;-76
2022/05/12 12:28:24;;;;;;;24.80;2.60;;;;;;;;;;4895524;29;20554;-77
2022/05/12 12:30:50;;;;;;;51.97;4.80;;;;;;;;;;4895306;29;20036;-75
2022/05/12 12:33:25;;;;;;;28.80;4.00;;;;;;;;;;4895511;29;20388;-76
2022/05/12 12:35:56;;;;;;;23.95;2.42;;;;;;;;;;4895246;29;20040;-75
2022/05/12 12:38:41;;;;;;;5.45;1.13;;;;;;;;;;4895501;29;20515;-75
2022/05/12 12:41:07;;;;;;;27.13;2.83;;;;;;;;;;4895435;29;20479;-76
2022/05/12 12:43:43;;;;;;;11.32;1.50;;;;;;;;;;4895313;29;20116;-75
2022/05/12 12:46:12;;;;;;;35.95;3.75;;;;;;;;;;4894411;29;20184;-77
2022/05/12 12:48:44;;;;;;;34.35;3.42;;;;;;;;;;4895224;29;20100;-77
2022/05/12 12:51:10;;;;;;;33.80;3.22;;;;;;;;;;4941405;28;20047;-76
2022/05/12 12:56:35;;;;;;;8.95;1.48;;;;;;;;;;4972821;28;20085;-76
2022/05/12 12:59:08;;;;;;;39.33;3.47;;;;;;;;;;4973654;28;20031;-77
2022/05/12 13:01:50;;;;;;;22.65;3.03;;;;;;;;;;4973575;28;20073;-77
2022/05/12 13:04:19;;;;;;;5.50;1.13;;;;;;;;;;4973733;28;20162;-80
2022/05/12 13:06:49;;;;;;;5.93;1.48;;;;;;;;;;4956407;28;20273;-77
2022/05/12 13:09:15;;;;;;;13.23;1.20;;;;;;;;;;4973612;28;20162;-78
2022/05/12 13:11:42;;;;;;;2.83;1.00;;;;;;;;;;4973367;28;20508;-79
2022/05/12 13:14:16;;;;;;;4.18;1.00;;;;;;;;;;4973758;28;20477;-80
2022/05/12 13:16:43;;;;;;;18.63;1.58;;;;;;;;;;4973297;28;20026;-75
2022/05/12 13:19:10;;;;;;;3.03;1.23;;;;;;;;;;4973273;28;20027;-76
2022/05/12 13:21:38;;;;;;;3.20;0.80;;;;;;;;;;4973070;28;20034;-75
2022/05/12 13:24:11;;;;;;;5.78;1.00;;;;;;;;;;4973273;28;20465;-79
2022/05/12 13:26:39;;;;;;;4.57;0.98;;;;;;;;;;4974138;28;20031;-78
2022/05/12 13:29:09;;;;;;;4.05;1.42;;;;;;;;;;4968768;28;20050;-79
2022/05/12 13:31:53;;;;;;;4.95;1.10;;;;;;;;;;4971783;28;20019;-79
2022/05/12 13:34:26;;;;;;;5.32;1.00;;;;;;;;;;4969716;28;20361;-79
2022/05/12 13:36:54;;;;;;;10.73;1.40;;;;;;;;;;4944237;29;20055;-79
2022/05/12 13:39:39;;;;;;;5.00;1.45;;;;;;;;;;4951286;29;20398;-79
2022/05/12 13:42:05;;;;;;;5.25;0.90;;;;;;;;;;4947932;29;20051;-79
2022/05/12 13:44:37;;;;;;;3.03;1.10;;;;;;;;;;4943207;28;20051;-79
2022/05/12 13:47:04;;;;;;;4.27;1.00;;;;;;;;;;4942263;28;20114;-80
2022/05/12 13:49:41;;;;;;;3.92;0.90;;;;;;;;;;4942312;28;20798;-78
2022/05/12 13:52:22;;;;;;;3.08;1.13;;;;;;;;;;4943169;29;20034;-78
2022/05/12 13:54:50;;;;;;;3.22;1.13;;;;;;;;;;4954756;28;20125;-84
2022/05/12 13:57:19;;;;;;;4.85;1.00;;;;;;;;;;4954577;28;20023;-80
2022/05/12 13:59:53;;;;;;;3.65;0.65;;;;;;;;;;4953169;28;20027;-80
2022/05/12 14:02:21;;;;;;;5.40;1.08;;;;;;;;;;4953153;29;20499;-80
2022/05/12 14:04:47;;;;;;;4.07;0.93;;;;;;;;;;4953213;29;20397;-77
2022/05/12 14:07:13;;;;;;;9.20;1.60;;;;;;;;;;4954003;28;20062;-77
2022/05/12 14:09:53;;;;;;;6.05;1.77;;;;;;;;;;4952378;29;20046;-78
2022/05/12 14:12:23;;;;;;;3.60;1.00;;;;;;;;;;4953661;28;20031;-77
2022/05/12 14:20:23;;;;;;;17.48;2.97;;;;;;;;;;4953998;29;20123;-78
2022/05/12 14:22:49;;;;;;;9.68;1.83;;;;;;;;;;4954171;28;20032;-77
2022/05/12 14:25:17;;;;;;;81.03;7.25;;;;;;;;;;4953565;28;20027;-77
2022/05/12 14:27:43;;;;;;;32.25;3.70;;;;;;;;;;4953501;28;20039;-76
2022/05/12 14:30:09;;;;;;;72.05;5.88;;;;;;;;;;4953556;28;20042;-77
2022/05/12 14:32:38;;;;;;;52.30;5.38;;;;;;;;;;4953416;29;20032;-77
2022/05/12 14:35:05;;;;;;;35.10;3.30;;;;;;;;;;4952143;29;20031;-78
2022/05/12 14:37:31;;;;;;;11.05;1.33;;;;;;;;;;4952032;29;20056;-79
2022/05/12 14:39:58;;;;;;;5.80;1.10;;;;;;;;;;4939776;29;20034;-76
2022/05/12 14:42:25;;;;;;;5.47;1.20;;;;;;;;;;4953323;28;20061;-76
2022/05/12 14:44:51;;;;;;;7.43;1.95;;;;;;;;;;4951973;29;20031;-78
2022/05/12 14:47:22;;;;;;;4.15;1.00;;;;;;;;;;4951739;29;20413;-79
2022/05/12 14:49:48;;;;;;;6.30;1.30;;;;;;;;;;4953561;29;20505;-77
2022/05/12 14:52:33;;;;;;;4.95;1.20;;;;;;;;;;4951742;29;20027;-80
2022/05/12 14:54:59;;;;;;;4.30;1.40;;;;;;;;;;4949009;29;20107;-77
2022/05/12 14:57:26;;;;;;;4.20;1.20;;;;;;;;;;4942183;28;20028;-77
2022/05/12 14:59:52;;;;;;;3.92;1.05;;;;;;;;;;4947041;28;20470;-79
2022/05/12 15:02:30;;;;;;;4.68;1.20;;;;;;;;;;4941013;28;20478;-78
2022/05/12 15:04:57;;;;;;;3.85;1.17;;;;;;;;;;4951501;29;20473;-77
2022/05/12 15:07:23;;;;;;;4.53;1.10;;;;;;;;;;4951611;28;20027;-77
2022/05/12 15:09:50;;;;;;;5.10;1.35;;;;;;;;;;4953258;28;20030;-78
2022/05/12 15:12:16;;;;;;;7.35;1.33;;;;;;;;;;4953098;29;20147;-78
2022/05/12 15:14:43;;;;;;;6.82;1.67;;;;;;;;;;4955133;28;20394;-78
2022/05/12 15:17:11;;;;;;;5.28;1.38;;;;;;;;;;4956478;29;20034;-79